Clearview, Washington
Current Conditions -  °F | °C
As of 8:53 AM on Friday 31 Oct 2014 (Local Time) from KPAE Reporting Station
Moderate Rain Moderate Rain  
Wind Chill: 50°   Ceiling: 100
Heat Index: 50°   Visibility: 0.25mi
Dew Point: 49°   Wind: 7mph
Humidity: 96%   Direction: 290°WNW
Pressure: 29.73"   Gusts: NA
Location:  47.9468°N, 122.012°W
Report Text: KPAE 311553Z 29006KT 1/4SM R16R/5500VP6000FT RA FG VV001 10/09 A2973 RMK AO2 SLP068 P0014 T01000094
Loading
Personal Weather Stations






























Interactive Weather Map New forecast layout! Learn more

10-Day Weather Forecast

Advertisements
Track Severe Weather on mobile